createdAt,value
2018-06-30T00:00:57.048Z,0
2018-06-30T00:01:57.076Z,0
2018-06-30T00:02:57.092Z,0
2018-06-30T00:03:57.114Z,0
2018-06-30T00:05:11.543Z,0
2018-06-30T00:05:56.901Z,0
2018-06-30T00:06:57.182Z,0
2018-06-30T00:07:57.203Z,0
2018-06-30T00:08:57.224Z,0
2018-06-30T00:10:57.278Z,0
2018-06-30T00:11:57.294Z,0
2018-06-30T00:12:57.321Z,0
2018-06-30T00:13:57.345Z,0
2018-06-30T00:14:57.102Z,0
2018-06-30T00:15:57.388Z,0
2018-06-30T00:16:57.407Z,0
2018-06-30T00:17:57.431Z,0
2018-06-30T00:18:56.940Z,0
2018-06-30T00:19:57.475Z,0
2018-06-30T00:21:12.159Z,0
2018-06-30T00:22:12.198Z,0
2018-06-30T00:22:57.646Z,0
2018-06-30T00:23:57.571Z,0
2018-06-30T00:24:57.593Z,0
2018-06-30T00:25:57.360Z,0
2018-06-30T00:26:57.379Z,0
2018-06-30T00:27:56.888Z,0
2018-06-30T00:29:12.355Z,0
2018-06-30T00:29:57.700Z,0
2018-06-30T00:30:57.472Z,0
2018-06-30T00:32:12.412Z,0
2018-06-30T00:32:57.511Z,0
2018-06-30T00:33:57.793Z,0
2018-06-30T00:34:57.558Z,0
2018-06-30T00:35:57.581Z,0
2018-06-30T00:37:12.531Z,0
2018-06-30T00:38:12.556Z,0
2018-06-30T00:38:57.647Z,0
2018-06-30T00:39:57.924Z,0
2018-06-30T00:41:57.719Z,0
2018-06-30T00:42:58.093Z,0
2018-06-30T00:43:58.021Z,0
2018-06-30T00:44:57.525Z,0
2018-06-30T00:45:58.071Z,0
2018-06-30T00:47:58.112Z,0
2018-06-30T00:48:58.133Z,0
2018-06-30T00:49:57.899Z,0
2018-06-30T00:50:58.176Z,0
2018-06-30T00:52:12.862Z,0
2018-06-30T00:52:57.707Z,0
2018-06-30T00:53:58.246Z,0
2018-06-30T00:54:57.752Z,0
2018-06-30T00:56:12.955Z,0
2018-06-30T00:57:12.981Z,0
2018-06-30T00:57:58.340Z,0
2018-06-30T00:58:58.365Z,0
2018-06-30T00:59:58.379Z,0
2018-06-30T01:00:58.401Z,0
2018-06-30T01:02:13.187Z,0
2018-06-30T01:02:58.452Z,0
2018-06-30T01:03:58.495Z,0
2018-06-30T01:04:58.492Z,0
2018-06-30T01:05:58.256Z,0
2018-06-30T01:06:58.540Z,0
2018-06-30T01:07:58.307Z,0
2018-06-30T01:08:58.589Z,0
2018-06-30T01:09:58.603Z,0
2018-06-30T01:10:58.631Z,0
2018-06-30T01:12:13.052Z,0
2018-06-30T01:15:58.481Z,0
2018-06-30T01:17:13.421Z,0
2018-06-30T01:18:13.185Z,0
2018-06-30T01:18:58.586Z,0
2018-06-30T01:19:58.829Z,0
2018-06-30T01:20:58.593Z,0
2018-06-30T01:21:58.617Z,0
2018-06-30T01:22:58.894Z,0
2018-06-30T01:24:13.581Z,0
2018-06-30T01:24:58.940Z,0
2018-06-30T01:25:58.961Z,0
2018-06-30T01:27:13.641Z,0
2018-06-30T01:27:59.005Z,0
2018-06-30T01:28:59.031Z,0
2018-06-30T01:30:13.712Z,0
2018-06-30T01:30:59.076Z,0
2018-06-30T01:32:13.763Z,0
2018-06-30T01:32:59.116Z,0
2018-06-30T01:34:13.795Z,0
2018-06-30T01:34:58.952Z,0
2018-06-30T01:35:58.667Z,0
2018-06-30T01:36:58.948Z,0
2018-06-30T01:37:59.224Z,0
2018-06-30T01:38:59.247Z,0
2018-06-30T01:40:13.935Z,0
2018-06-30T01:40:59.034Z,0
2018-06-30T01:41:58.898Z,0
2018-06-30T01:42:59.335Z,0
2018-06-30T01:43:59.360Z,0
2018-06-30T01:44:59.383Z,0
2018-06-30T01:46:13.906Z,0
2018-06-30T01:46:59.423Z,0
2018-06-30T01:47:59.449Z,0
2018-06-30T01:48:59.472Z,0
2018-06-30T01:50:14.153Z,0
2018-06-30T01:50:59.514Z,0
2018-06-30T01:51:59.536Z,0
2018-06-30T01:52:59.301Z,4
2018-06-30T01:53:59.579Z,4
2018-06-30T01:56:14.288Z,0
2018-06-30T01:56:59.644Z,0
2018-06-30T01:58:59.692Z,4
2018-06-30T01:59:59.714Z,0
2018-06-30T02:00:59.737Z,4
2018-06-30T02:02:14.163Z,4
2018-06-30T02:02:59.778Z,4
2018-06-30T02:04:14.462Z,4
2018-06-30T02:04:59.565Z,4
2018-06-30T02:05:59.849Z,8
2018-06-30T02:06:59.607Z,4
2018-06-30T02:07:59.989Z,8
2018-06-30T02:08:59.912Z,8
2018-06-30T02:09:59.932Z,8
2018-06-30T02:10:59.699Z,12
2018-06-30T02:12:29.300Z,12
2018-06-30T02:13:14.659Z,16
2018-06-30T02:14:14.682Z,16
2018-06-30T02:15:00.085Z,16
2018-06-30T02:16:00.073Z,20
2018-06-30T02:17:00.088Z,20
2018-06-30T02:18:00.105Z,24
2018-06-30T02:19:00.134Z,28
2018-06-30T02:20:14.813Z,28
2018-06-30T02:21:14.834Z,36
2018-06-30T02:22:14.855Z,36
2018-06-30T02:23:14.619Z,40
2018-06-30T02:24:00.237Z,44
2018-06-30T02:25:00.261Z,52
2018-06-30T02:26:00.127Z,56
2018-06-30T02:27:14.965Z,64
2018-06-30T02:28:14.989Z,72
2018-06-30T02:29:00.346Z,76
2018-06-30T02:30:00.374Z,84
2018-06-30T02:31:00.391Z,92
2018-06-30T02:32:00.424Z,104
2018-06-30T02:33:00.191Z,112
2018-06-30T02:34:15.122Z,128
2018-06-30T02:35:00.224Z,132
2018-06-30T02:36:15.164Z,152
2018-06-30T02:37:00.523Z,160
2018-06-30T02:38:00.554Z,172
2018-06-30T02:39:00.222Z,188
2018-06-30T02:40:00.338Z,204
2018-06-30T02:41:00.668Z,220
2018-06-30T02:42:00.386Z,236
2018-06-30T02:43:00.410Z,256
2018-06-30T02:44:00.675Z,276
2018-06-30T02:45:00.698Z,296
2018-06-30T02:46:01.000Z,316
2018-06-30T02:47:00.754Z,340
2018-06-30T02:49:00.794Z,388
2018-06-30T02:50:15.471Z,420
2018-06-30T02:51:00.577Z,440
2018-06-30T02:52:00.601Z,464
2018-06-30T02:53:15.278Z,500
2018-06-30T02:54:15.366Z,532
2018-06-30T02:55:00.913Z,552
2018-06-30T02:56:15.346Z,592
2018-06-30T02:57:15.622Z,620
2018-06-30T02:58:00.986Z,644
2018-06-30T02:59:15.662Z,688
2018-06-30T03:00:15.427Z,720
2018-06-30T03:01:15.704Z,756
2018-06-30T03:02:15.495Z,788
2018-06-30T03:03:01.090Z,816
2018-06-30T03:04:01.111Z,848
2018-06-30T03:06:00.899Z,920
2018-06-30T03:07:01.173Z,956
2018-06-30T03:08:01.203Z,996
2018-06-30T03:09:01.230Z,1032
2018-06-30T03:10:01.239Z,1072
2018-06-30T03:11:01.122Z,1108
2018-06-30T03:12:01.288Z,1144
2018-06-30T03:13:01.045Z,1180
2018-06-30T03:14:01.070Z,1220
2018-06-30T03:15:15.766Z,1268
2018-06-30T03:16:16.061Z,1308
2018-06-30T03:17:01.208Z,1336
2018-06-30T03:18:01.413Z,1376
2018-06-30T03:19:01.178Z,1412
2018-06-30T03:21:01.220Z,1488
2018-06-30T03:22:01.499Z,1528
2018-06-30T03:23:01.518Z,1564
2018-06-30T03:24:01.637Z,1604
2018-06-30T03:25:01.560Z,1644
2018-06-30T03:26:01.582Z,1684
2018-06-30T03:27:16.270Z,1732
2018-06-30T03:28:01.113Z,1760
2018-06-30T03:29:01.647Z,1800
2018-06-30T03:30:01.674Z,1840
2018-06-30T03:31:16.355Z,1888
2018-06-30T03:32:01.730Z,1916
2018-06-30T03:33:01.734Z,1956
2018-06-30T03:34:01.494Z,1996
2018-06-30T03:35:01.781Z,2028
2018-06-30T03:36:01.797Z,2068
2018-06-30T03:37:01.816Z,2108
2018-06-30T03:38:01.581Z,2148
2018-06-30T03:39:16.523Z,2200
2018-06-30T03:41:01.645Z,2264
2018-06-30T03:42:01.931Z,2308
2018-06-30T03:43:01.948Z,2364
2018-06-30T03:44:01.971Z,2484
2018-06-30T03:45:01.481Z,2500
2018-06-30T03:46:02.017Z,2680
2018-06-30T03:47:16.179Z,2692
2018-06-30T03:48:01.802Z,2640
2018-06-30T03:50:16.759Z,2856
2018-06-30T03:51:01.865Z,2724
2018-06-30T03:52:02.146Z,2796
2018-06-30T03:53:01.909Z,2748
2018-06-30T03:54:01.941Z,2792
2018-06-30T03:56:02.237Z,2896
2018-06-30T03:57:01.998Z,2960
2018-06-30T03:58:02.273Z,3112
2018-06-30T03:59:02.296Z,3556
2018-06-30T04:00:02.317Z,6404
2018-06-30T04:01:02.338Z,6500
2018-06-30T04:02:31.684Z,6152
2018-06-30T04:04:02.452Z,5736
2018-06-30T04:05:02.172Z,4552
2018-06-30T04:06:02.449Z,5704
2018-06-30T04:07:02.475Z,4772
2018-06-30T04:08:02.524Z,3792
2018-06-30T04:10:02.278Z,3892
2018-06-30T04:11:02.561Z,4164
2018-06-30T04:12:02.319Z,7432
2018-06-30T04:13:02.597Z,24640
2018-06-30T04:14:02.627Z,50656
2018-06-30T04:15:02.415Z,61824
2018-06-30T04:16:02.668Z,59712
2018-06-30T04:17:02.435Z,65056
2018-06-30T04:18:02.196Z,63872
2018-06-30T04:19:02.731Z,64064
2018-06-30T04:20:02.497Z,67840
2018-06-30T04:21:02.785Z,65376
2018-06-30T04:22:02.972Z,64992
2018-06-30T04:23:17.232Z,64448
2018-06-30T04:25:02.890Z,68992
2018-06-30T04:26:02.911Z,66528
2018-06-30T04:27:02.933Z,64224
2018-06-30T04:28:02.958Z,65440
2018-06-30T04:29:02.983Z,67872
2018-06-30T04:30:02.753Z,66592
2018-06-30T04:31:03.039Z,66048
2018-06-30T04:32:03.067Z,66880
2018-06-30T04:33:03.091Z,63360
2018-06-30T04:34:17.782Z,66656
2018-06-30T04:35:02.634Z,67648
2018-06-30T04:36:03.175Z,64544
2018-06-30T04:37:03.218Z,69888
2018-06-30T04:38:03.231Z,72576
2018-06-30T04:39:03.262Z,68128
2018-06-30T04:40:03.293Z,66560
2018-06-30T04:41:03.320Z,69952
2018-06-30T04:42:03.349Z,69312
2018-06-30T04:43:02.859Z,69952
2018-06-30T04:44:03.406Z,73376
2018-06-30T04:46:03.203Z,71584
2018-06-30T04:47:03.242Z,73152
2018-06-30T04:48:03.564Z,68416
2018-06-30T04:50:18.249Z,80832
2018-06-30T04:51:03.801Z,76192
2018-06-30T04:52:03.654Z,81728
2018-06-30T04:53:03.418Z,84288
2018-06-30T04:54:03.449Z,77984
2018-06-30T04:55:03.482Z,81216
2018-06-30T04:56:03.776Z,83136
2018-06-30T04:57:03.546Z,81760
2018-06-30T04:58:03.584Z,83392
2018-06-30T04:59:03.605Z,82304
2018-06-30T05:00:03.639Z,84640
2018-06-30T05:01:03.668Z,83616
2018-06-30T05:02:03.966Z,84736
2018-06-30T05:04:04.025Z,82240
2018-06-30T05:05:04.060Z,87072
2018-06-30T05:06:18.754Z,88512
2018-06-30T05:07:04.134Z,88032
2018-06-30T05:08:04.157Z,85664
2018-06-30T05:10:03.707Z,86272
2018-06-30T05:11:04.001Z,88128
2018-06-30T05:12:04.298Z,90912
2018-06-30T05:13:04.067Z,89888
2018-06-30T05:15:04.146Z,92480
2018-06-30T05:16:04.171Z,93696
2018-06-30T05:18:19.149Z,91392
2018-06-30T05:19:04.264Z,90688
2018-06-30T05:20:04.302Z,93088
2018-06-30T05:21:04.071Z,92928
2018-06-30T05:22:19.290Z,96640
2018-06-30T05:23:04.406Z,97248
2018-06-30T05:24:04.534Z,96096
2018-06-30T05:25:19.388Z,90752
2018-06-30T05:26:04.765Z,92608
2018-06-30T05:27:04.803Z,93440
2018-06-30T05:28:04.836Z,96672
2018-06-30T05:29:04.351Z,97664
2018-06-30T05:30:04.752Z,99488
2018-06-30T05:31:04.935Z,96352
2018-06-30T05:32:04.712Z,96512
2018-06-30T05:33:04.487Z,96992
2018-06-30T05:34:04.786Z,98144
2018-06-30T05:35:04.816Z,97856
2018-06-30T05:36:04.594Z,99360
2018-06-30T05:37:19.292Z,102496
2018-06-30T05:38:05.177Z,99936
2018-06-30T05:40:05.249Z,107424
2018-06-30T05:41:05.095Z,107104
2018-06-30T05:42:05.326Z,104480
2018-06-30T05:43:05.104Z,104896
2018-06-30T05:45:05.426Z,100640
2018-06-30T05:46:19.867Z,104832
2018-06-30T05:47:05.237Z,106528
2018-06-30T05:48:05.281Z,101184
2018-06-30T05:50:05.336Z,105120
2018-06-30T05:51:05.379Z,103072
2018-06-30T05:52:05.675Z,104672
2018-06-30T05:53:05.451Z,102720
2018-06-30T05:54:05.743Z,104384
2018-06-30T05:55:05.793Z,102560
2018-06-30T05:56:05.815Z,103936
2018-06-30T05:57:05.338Z,105184
2018-06-30T05:58:05.884Z,101888
2018-06-30T05:59:05.929Z,106240
2018-06-30T06:00:05.958Z,103840
2018-06-30T06:01:05.734Z,107264
2018-06-30T06:02:06.023Z,105792
2018-06-30T06:03:20.735Z,102848
2018-06-30T06:04:06.118Z,104032
2018-06-30T06:05:05.877Z,103552
2018-06-30T06:06:06.195Z,104768
2018-06-30T06:07:05.948Z,105440
2018-06-30T06:08:06.243Z,105856
2018-06-30T06:09:20.938Z,104384
2018-06-30T06:10:06.397Z,103232
2018-06-30T06:11:21.014Z,104800
2018-06-30T06:12:20.791Z,105088
2018-06-30T06:13:06.420Z,105952
2018-06-30T06:14:20.875Z,105792
2018-06-30T06:15:05.995Z,105056
2018-06-30T06:16:06.548Z,106016
2018-06-30T06:17:06.312Z,103328
2018-06-30T06:18:06.345Z,98784
2018-06-30T06:19:06.398Z,96480
2018-06-30T06:20:06.243Z,100928
2018-06-30T06:21:06.216Z,104512
2018-06-30T06:22:21.416Z,104064
2018-06-30T06:23:06.624Z,102528
2018-06-30T06:24:06.558Z,103456
2018-06-30T06:25:21.538Z,99616
2018-06-30T06:26:06.918Z,101440
2018-06-30T06:27:06.943Z,101152
2018-06-30T06:28:06.970Z,108256
2018-06-30T06:29:06.747Z,109632
2018-06-30T06:30:06.796Z,104064
2018-06-30T06:31:21.749Z,101184
2018-06-30T06:32:06.862Z,103840
2018-06-30T06:33:06.899Z,107328
2018-06-30T06:34:07.192Z,108480
2018-06-30T06:35:07.228Z,105664
2018-06-30T06:36:07.000Z,104864
2018-06-30T06:37:06.785Z,103456
2018-06-30T06:38:07.340Z,104160
2018-06-30T06:39:06.852Z,102208
2018-06-30T06:40:07.152Z,100960
2018-06-30T06:41:22.104Z,98720
2018-06-30T06:43:06.999Z,102944
2018-06-30T06:44:07.393Z,102464
2018-06-30T06:46:07.361Z,97120
2018-06-30T06:48:07.437Z,97664
2018-06-30T06:49:07.730Z,96256
2018-06-30T06:50:07.511Z,98752
2018-06-30T06:51:07.691Z,98688
2018-06-30T06:52:21.988Z,101632
2018-06-30T06:53:07.458Z,100000
2018-06-30T06:54:07.655Z,100672
2018-06-30T06:55:22.615Z,97792
2018-06-30T06:56:07.468Z,97856
2018-06-30T06:57:22.693Z,93568
2018-06-30T06:58:08.057Z,94496
2018-06-30T06:59:08.101Z,91136
2018-06-30T07:00:07.618Z,91648
2018-06-30T07:01:07.915Z,92832
2018-06-30T07:02:07.957Z,92480
2018-06-30T07:03:08.428Z,90208
2018-06-30T07:04:08.286Z,89536
2018-06-30T07:05:07.798Z,88192
2018-06-30T07:06:08.102Z,91040
2018-06-30T07:07:08.125Z,91968
2018-06-30T07:08:08.421Z,85216
2018-06-30T07:09:08.200Z,82752
2018-06-30T07:11:08.275Z,88096
2018-06-30T07:12:23.233Z,83968
2018-06-30T07:13:08.095Z,83232
2018-06-30T07:14:08.643Z,83712
2018-06-30T07:15:08.160Z,86240
2018-06-30T07:16:08.719Z,88448
2018-06-30T07:17:08.241Z,85664
2018-06-30T07:18:08.270Z,78112
2018-06-30T07:19:23.621Z,78496
2018-06-30T07:20:08.603Z,83872
2018-06-30T07:22:23.339Z,84032
2018-06-30T07:23:08.451Z,84576
2018-06-30T07:24:08.754Z,83168
2018-06-30T07:25:08.522Z,84064
2018-06-30T07:26:23.743Z,83360
2018-06-30T07:27:08.887Z,83072
2018-06-30T07:28:08.891Z,82912
2018-06-30T07:29:23.592Z,80768
2018-06-30T07:30:09.424Z,78208
2018-06-30T07:31:09.335Z,75424
2018-06-30T07:32:09.036Z,76928
2018-06-30T07:33:23.733Z,80576
2018-06-30T07:34:09.370Z,80672
2018-06-30T07:35:09.144Z,79712
2018-06-30T07:36:09.184Z,78208
2018-06-30T07:37:09.475Z,79456
2018-06-30T07:38:08.995Z,82208
2018-06-30T07:39:09.028Z,81312
2018-06-30T07:40:09.323Z,80064
2018-06-30T07:41:09.616Z,80992
2018-06-30T07:42:09.133Z,80448
2018-06-30T07:43:09.463Z,78432
2018-06-30T07:44:24.387Z,77088
2018-06-30T07:45:09.241Z,77248
2018-06-30T07:46:24.469Z,76896
2018-06-30T07:47:24.237Z,78432
2018-06-30T07:48:09.352Z,76640
2018-06-30T07:49:09.647Z,69536
2018-06-30T07:50:10.288Z,70240
2018-06-30T07:51:09.458Z,76032
2018-06-30T07:52:09.757Z,73184
2018-06-30T07:53:24.450Z,68896
2018-06-30T07:54:24.489Z,71936
2018-06-30T07:55:09.599Z,71840
2018-06-30T07:56:10.366Z,69280
2018-06-30T07:57:10.195Z,69632
2018-06-30T07:58:09.965Z,70688
2018-06-30T07:59:10.358Z,70784
2018-06-30T08:00:24.701Z,70944
2018-06-30T08:01:10.326Z,70112
2018-06-30T08:02:11.030Z,69728
2018-06-30T08:03:09.983Z,69376
2018-06-30T08:04:09.921Z,69312
2018-06-30T08:05:25.141Z,69632
2018-06-30T08:06:10.509Z,69632
2018-06-30T08:07:10.290Z,68640
2018-06-30T08:08:10.328Z,69984
2018-06-30T08:09:10.365Z,70208
2018-06-30T08:10:10.658Z,66048
2018-06-30T08:11:10.685Z,67968
2018-06-30T08:12:10.496Z,71040
2018-06-30T08:13:10.505Z,69696
2018-06-30T08:14:10.533Z,67136
2018-06-30T08:15:10.830Z,20160
2018-06-30T08:16:25.525Z,68192
2018-06-30T08:17:10.897Z,65056
2018-06-30T08:18:25.593Z,71200
2018-06-30T08:19:10.967Z,70560
2018-06-30T08:20:11.006Z,67424
2018-06-30T08:22:10.811Z,73600
2018-06-30T08:23:10.597Z,70368
2018-06-30T08:24:25.546Z,72416
2018-06-30T08:25:10.916Z,29664
2018-06-30T08:26:10.693Z,22464
2018-06-30T08:27:11.247Z,14156
2018-06-30T08:28:11.278Z,21312
2018-06-30T08:29:11.055Z,13896
2018-06-30T08:30:11.093Z,13144
2018-06-30T08:31:11.124Z,20704
2018-06-30T08:32:26.080Z,70592
2018-06-30T08:33:11.202Z,70944
2018-06-30T08:34:11.227Z,68896
2018-06-30T08:36:11.334Z,61728
2018-06-30T08:37:11.584Z,60384
2018-06-30T08:38:11.621Z,61696
2018-06-30T08:39:11.400Z,20864
2018-06-30T08:40:26.352Z,54464
2018-06-30T08:41:26.386Z,13920
2018-06-30T08:42:11.500Z,14260
2018-06-30T08:43:11.531Z,51424
2018-06-30T08:44:11.305Z,19616
2018-06-30T08:45:11.870Z,16508
2018-06-30T08:46:11.893Z,16220
2018-06-30T08:47:26.591Z,26656
2018-06-30T08:48:11.701Z,26496
2018-06-30T08:50:12.024Z,27072
2018-06-30T08:51:12.137Z,23392
2018-06-30T08:52:11.830Z,14320
2018-06-30T08:53:11.862Z,16772
2018-06-30T08:54:11.994Z,21952
2018-06-30T08:55:12.244Z,22112
2018-06-30T08:58:12.029Z,25056
2018-06-30T08:59:11.807Z,25248
2018-06-30T09:00:11.579Z,24768
2018-06-30T09:01:12.399Z,14456
2018-06-30T09:02:12.422Z,17536
2018-06-30T09:03:12.461Z,11744
2018-06-30T09:04:12.514Z,11072
2018-06-30T09:06:12.584Z,10656
2018-06-30T09:07:12.681Z,11164
2018-06-30T09:08:12.356Z,11596
2018-06-30T09:09:12.396Z,11956
2018-06-30T09:10:12.683Z,22944
2018-06-30T09:11:12.723Z,23104
2018-06-30T09:12:12.631Z,24224
2018-06-30T09:13:27.179Z,24000
2018-06-30T09:14:12.551Z,21952
2018-06-30T09:15:12.581Z,12088
2018-06-30T09:16:13.057Z,11164
2018-06-30T09:17:12.901Z,18976
2018-06-30T09:18:12.676Z,22528
2018-06-30T09:19:27.628Z,23680
2018-06-30T09:20:13.099Z,21728
2018-06-30T09:21:12.773Z,20800
2018-06-30T09:22:13.067Z,11884
2018-06-30T09:23:13.098Z,11964
2018-06-30T09:24:13.326Z,22976
2018-06-30T09:26:13.196Z,22368
2018-06-30T09:27:12.983Z,13340
2018-06-30T09:28:12.996Z,14732
2018-06-30T09:29:27.943Z,20000
2018-06-30T09:30:13.318Z,19296
2018-06-30T09:31:13.345Z,15868
2018-06-30T09:32:13.375Z,19360
2018-06-30T09:33:13.146Z,22304
2018-06-30T09:34:13.448Z,23840
2018-06-30T09:35:28.130Z,26720
2018-06-30T09:36:28.162Z,27328
2018-06-30T09:37:13.284Z,28000
2018-06-30T09:38:27.967Z,26816
2018-06-30T09:39:13.592Z,16292
2018-06-30T09:40:28.028Z,14956
2018-06-30T09:41:13.657Z,14260
2018-06-30T09:42:13.689Z,13176
2018-06-30T09:43:13.717Z,12676
2018-06-30T09:44:13.491Z,13120
2018-06-30T09:45:13.783Z,13728
2018-06-30T09:46:13.295Z,17184
2018-06-30T09:48:13.615Z,23360
2018-06-30T09:49:13.916Z,18208
2018-06-30T09:50:13.422Z,17728
2018-06-30T09:51:28.628Z,16468
2018-06-30T09:52:13.739Z,20032
2018-06-30T09:53:13.512Z,20320
2018-06-30T09:54:14.067Z,18720
2018-06-30T09:55:14.097Z,15844
2018-06-30T09:56:13.604Z,12516
2018-06-30T09:57:14.204Z,12596
2018-06-30T09:58:13.924Z,14716
2018-06-30T09:59:14.211Z,17004
2018-06-30T10:00:28.939Z,17096
2018-06-30T10:01:14.287Z,17888
2018-06-30T10:02:28.708Z,18304
2018-06-30T10:03:14.371Z,19008
2018-06-30T10:04:14.108Z,12068
2018-06-30T10:05:14.397Z,22048
2018-06-30T10:06:13.908Z,21184
2018-06-30T10:07:29.125Z,10884
2018-06-30T10:08:14.228Z,11004
2018-06-30T10:09:14.400Z,11896
2018-06-30T10:10:14.031Z,20800
2018-06-30T10:11:14.318Z,20416
2018-06-30T10:12:14.613Z,10452
2018-06-30T10:13:14.423Z,9584
2018-06-30T10:14:14.416Z,18144
2018-06-30T10:15:29.367Z,18112
2018-06-30T10:16:14.783Z,18592
2018-06-30T10:17:14.768Z,19360
2018-06-30T10:18:14.799Z,20512
2018-06-30T10:19:15.262Z,20544
2018-06-30T10:20:29.519Z,20320
2018-06-30T10:21:15.130Z,12288
2018-06-30T10:22:29.579Z,11292
2018-06-30T10:23:29.607Z,10412
2018-06-30T10:24:14.975Z,9568
2018-06-30T10:25:14.750Z,8856
2018-06-30T10:26:29.444Z,12544
2018-06-30T10:27:14.810Z,14740
2018-06-30T10:28:14.838Z,14420
2018-06-30T10:29:14.870Z,14416
2018-06-30T10:30:15.161Z,14352
2018-06-30T10:31:14.994Z,14384
2018-06-30T10:32:29.616Z,14604
2018-06-30T10:33:15.253Z,14792
2018-06-30T10:34:15.284Z,15112
2018-06-30T10:35:15.299Z,15444
2018-06-30T10:36:15.337Z,15896
2018-06-30T10:37:30.042Z,16468
2018-06-30T10:38:15.393Z,16928
2018-06-30T10:39:30.085Z,14452
2018-06-30T10:40:30.113Z,11232
2018-06-30T10:42:15.313Z,17120
2018-06-30T10:43:15.283Z,17280
2018-06-30T10:44:15.574Z,16648
2018-06-30T10:45:15.348Z,16296
2018-06-30T10:46:15.731Z,8504
2018-06-30T10:47:15.667Z,15508
2018-06-30T10:48:15.433Z,15276
2018-06-30T10:49:30.120Z,15200
2018-06-30T10:50:15.751Z,15540
2018-06-30T10:51:15.521Z,16380
2018-06-30T10:52:15.291Z,16108
2018-06-30T10:53:15.576Z,14236
2018-06-30T10:54:30.530Z,12140
2018-06-30T10:56:15.409Z,9092
2018-06-30T10:57:15.953Z,8992
2018-06-30T10:58:15.727Z,9652
2018-06-30T10:59:16.008Z,11164
2018-06-30T11:00:16.305Z,19264
2018-06-30T11:01:30.733Z,18016
2018-06-30T11:02:15.581Z,19904
2018-06-30T11:03:15.612Z,12672
2018-06-30T11:04:16.160Z,12984
2018-06-30T11:05:16.497Z,12544
2018-06-30T11:06:16.216Z,11564
2018-06-30T11:07:16.250Z,10488
2018-06-30T11:08:16.016Z,9880
2018-06-30T11:09:16.043Z,9452
2018-06-30T11:10:30.991Z,9216
2018-06-30T11:11:16.356Z,9296
2018-06-30T11:12:31.048Z,9740
2018-06-30T11:13:16.515Z,10064
2018-06-30T11:14:16.443Z,10500
2018-06-30T11:15:16.473Z,10940
2018-06-30T11:16:16.496Z,11480
2018-06-30T11:17:16.274Z,11468
2018-06-30T11:18:16.566Z,11000
2018-06-30T11:20:17.103Z,10056
2018-06-30T11:21:31.309Z,9980
2018-06-30T11:22:16.434Z,9996
2018-06-30T11:23:16.440Z,10956
2018-06-30T11:24:16.774Z,14748
2018-06-30T11:25:16.493Z,14576
2018-06-30T11:26:31.440Z,15248
2018-06-30T11:27:16.546Z,16068
2018-06-30T11:28:16.838Z,14088
2018-06-30T11:29:16.861Z,13784
2018-06-30T11:31:16.925Z,14024
2018-06-30T11:32:16.684Z,13812
2018-06-30T11:33:16.976Z,12380
2018-06-30T11:34:17.000Z,11696
2018-06-30T11:35:17.031Z,11868
2018-06-30T11:36:31.464Z,12184
2018-06-30T11:37:17.187Z,11940
2018-06-30T11:38:17.109Z,11732
2018-06-30T11:39:17.145Z,11808
2018-06-30T11:40:17.167Z,11588
2018-06-30T11:41:17.196Z,11208
2018-06-30T11:42:31.984Z,10260
2018-06-30T11:43:17.252Z,9648
2018-06-30T11:44:17.281Z,12060
2018-06-30T11:45:17.305Z,8336
2018-06-30T11:46:17.337Z,7848
2018-06-30T11:47:17.108Z,7584
2018-06-30T11:48:17.132Z,10028
2018-06-30T11:49:17.159Z,9740
2018-06-30T11:50:17.236Z,9504
2018-06-30T11:51:17.214Z,9540
2018-06-30T11:52:17.501Z,9772
2018-06-30T11:53:17.271Z,10448
2018-06-30T11:54:17.295Z,11072
2018-06-30T11:55:17.594Z,12244
2018-06-30T11:56:17.355Z,13192
2018-06-30T11:57:32.302Z,13408
2018-06-30T11:58:17.667Z,11900
2018-06-30T11:59:17.691Z,12608
2018-06-30T12:00:32.382Z,12888
2018-06-30T12:01:17.750Z,12660
2018-06-30T12:02:17.867Z,12168
2018-06-30T12:03:17.804Z,11432
2018-06-30T12:04:32.494Z,10872
2018-06-30T12:05:17.601Z,10780
2018-06-30T12:06:17.376Z,10872
2018-06-30T12:07:17.913Z,11172
2018-06-30T12:08:17.971Z,11536
2018-06-30T12:09:17.838Z,11668
2018-06-30T12:10:17.994Z,12008
2018-06-30T12:11:18.022Z,11948
2018-06-30T12:13:17.822Z,11340
2018-06-30T12:14:17.849Z,10896
2018-06-30T12:15:18.133Z,12028
2018-06-30T12:16:32.564Z,10792
2018-06-30T12:17:18.187Z,11548
2018-06-30T12:18:18.216Z,10428
2018-06-30T12:19:18.240Z,9652
2018-06-30T12:21:17.780Z,11916
2018-06-30T12:22:17.809Z,10472
2018-06-30T12:23:18.354Z,11612
2018-06-30T12:24:18.386Z,11148
2018-06-30T12:25:18.417Z,11108
2018-06-30T12:26:18.446Z,11072
2018-06-30T12:27:18.458Z,11428
2018-06-30T12:28:18.500Z,10412
2018-06-30T12:29:33.200Z,10640
2018-06-30T12:30:18.340Z,9856
2018-06-30T12:31:18.053Z,10316
2018-06-30T12:32:18.600Z,12728
2018-06-30T12:33:33.034Z,10704
2018-06-30T12:34:18.392Z,10960
2018-06-30T12:35:18.686Z,10088
2018-06-30T12:36:18.709Z,9704
2018-06-30T12:37:18.735Z,9424
2018-06-30T12:38:18.764Z,11740
2018-06-30T12:39:18.273Z,8700
2018-06-30T12:40:18.861Z,8432
2018-06-30T12:41:18.841Z,7852
2018-06-30T12:42:18.873Z,8004
2018-06-30T12:43:18.634Z,8892
2018-06-30T12:44:18.668Z,9800
2018-06-30T12:45:33.609Z,10492
2018-06-30T12:46:18.736Z,11608
2018-06-30T12:47:18.489Z,13856
2018-06-30T12:48:19.030Z,10468
2018-06-30T12:49:19.065Z,9472
2018-06-30T12:50:19.087Z,8760
2018-06-30T12:51:19.124Z,8076
2018-06-30T12:52:33.545Z,7256
2018-06-30T12:53:18.912Z,6796
2018-06-30T12:54:33.993Z,6104
2018-06-30T12:55:19.223Z,5800
2018-06-30T12:56:33.913Z,5432
2018-06-30T12:57:19.273Z,5296
2018-06-30T12:58:19.297Z,5208
2018-06-30T12:59:19.323Z,5244
2018-06-30T13:00:19.452Z,5316
2018-06-30T13:01:34.042Z,5460
2018-06-30T13:02:19.151Z,5644
2018-06-30T13:03:19.185Z,5968
2018-06-30T13:04:19.304Z,6296
2018-06-30T13:05:19.234Z,6504
2018-06-30T13:06:19.520Z,6624
2018-06-30T13:07:19.284Z,6688
2018-06-30T13:08:19.566Z,6724
2018-06-30T13:09:19.853Z,6824
2018-06-30T13:10:19.618Z,7128
2018-06-30T13:11:19.649Z,7564
2018-06-30T13:12:19.672Z,7948
2018-06-30T13:13:19.696Z,8160
2018-06-30T13:14:19.721Z,8080
2018-06-30T13:15:19.495Z,7684
2018-06-30T13:16:19.780Z,7320
2018-06-30T13:17:34.491Z,7012
2018-06-30T13:18:19.831Z,6952
2018-06-30T13:19:19.860Z,7072
2018-06-30T13:20:19.630Z,7496
2018-06-30T13:21:19.907Z,8232
2018-06-30T13:22:19.936Z,11988
2018-06-30T13:23:34.828Z,12308
2018-06-30T13:24:19.994Z,12516
2018-06-30T13:25:19.504Z,12712
2018-06-30T13:26:20.052Z,12776
2018-06-30T13:27:20.067Z,12556
2018-06-30T13:28:20.091Z,12116
2018-06-30T13:29:20.134Z,11876
2018-06-30T13:30:20.144Z,11524
2018-06-30T13:31:19.925Z,9192
2018-06-30T13:32:34.606Z,8160
2018-06-30T13:33:20.028Z,6864
2018-06-30T13:34:34.754Z,6744
2018-06-30T13:35:20.284Z,6748
2018-06-30T13:36:20.307Z,6780
2018-06-30T13:38:20.358Z,6784
2018-06-30T13:39:20.393Z,6932
2018-06-30T13:40:20.162Z,7256
2018-06-30T13:41:35.102Z,7908
2018-06-30T13:42:20.312Z,8208
2018-06-30T13:43:20.388Z,8472
2018-06-30T13:44:20.523Z,8752
2018-06-30T13:45:20.294Z,8816
2018-06-30T13:46:20.733Z,8792
2018-06-30T13:47:20.602Z,8792
2018-06-30T13:48:20.628Z,8832
2018-06-30T13:49:20.395Z,8952
2018-06-30T13:50:20.684Z,9120
2018-06-30T13:51:20.768Z,9252
2018-06-30T13:52:20.736Z,9308
2018-06-30T13:53:20.765Z,9284
2018-06-30T13:54:20.793Z,9300
2018-06-30T13:55:35.475Z,9216
2018-06-30T13:56:20.577Z,9116
2018-06-30T13:57:21.027Z,8892
2018-06-30T13:58:20.895Z,8608
2018-06-30T13:59:20.657Z,8476
2018-06-30T14:00:20.942Z,7732
2018-06-30T14:01:20.974Z,7192
2018-06-30T14:02:20.737Z,6680